Time;durP1;ratioP1;P1;durP2;ratioP2;P2;SDS_P1;SDS_P2;PMS_P1;PMS_P2;Temp;Humidity;BMP_temperature;BMP_pressure;BME280_temperature;BME280_humidity;BME280_pressure;Samples;Min_cycle;Max_cycle;Signal;HPM_P1;HPM_P2
2022/08/03 00:01:40;;;;;;;0.77;0.73;;;24.50;96.10;;;;;;5032136;28;20014;-78
2022/08/03 00:04:07;;;;;;;1.08;1.08;;;24.50;96.10;;;;;;5032053;28;20105;-77
2022/08/03 00:06:34;;;;;;;1.80;0.95;;;24.50;96.20;;;;;;5031705;28;20580;-78
2022/08/03 00:09:00;;;;;;;2.47;1.30;;;24.50;96.00;;;;;;5031955;28;20026;-78
2022/08/03 00:11:26;;;;;;;0.80;0.80;;;24.40;95.80;;;;;;5014388;28;20032;-78
2022/08/03 00:13:52;;;;;;;0.88;0.88;;;24.40;95.80;;;;;;5014091;28;20596;-78
2022/08/03 00:16:18;;;;;;;0.95;0.95;;;24.40;95.80;;;;;;5031658;28;20017;-78
2022/08/03 00:18:44;;;;;;;1.00;1.00;;;24.40;95.90;;;;;;5031812;28;20049;-78
2022/08/03 00:21:10;;;;;;;0.93;0.93;;;24.40;95.70;;;;;;5031724;28;20419;-78
2022/08/03 00:23:36;;;;;;;0.85;0.80;;;24.40;95.90;;;;;;5031709;28;20394;-79
2022/08/03 00:26:02;;;;;;;0.90;0.90;;;24.40;96.00;;;;;;5031773;28;20032;-78
2022/08/03 00:28:28;;;;;;;0.90;0.90;;;24.30;95.90;;;;;;5031362;28;20022;-78
2022/08/03 00:30:56;;;;;;;0.85;0.85;;;24.30;96.00;;;;;;5031503;28;20029;-78
2022/08/03 00:33:22;;;;;;;0.70;0.70;;;24.30;95.90;;;;;;5013944;28;20033;-77
2022/08/03 00:35:48;;;;;;;0.80;0.80;;;24.20;96.00;;;;;;5013845;28;20030;-78
2022/08/03 00:38:14;;;;;;;0.80;0.80;;;24.20;95.90;;;;;;5031347;28;20032;-78
2022/08/03 00:40:39;;;;;;;1.00;1.00;;;24.30;95.90;;;;;;5031600;28;20026;-78
2022/08/03 00:43:07;;;;;;;1.95;0.95;;;24.20;96.00;;;;;;5031382;28;20077;-78
2022/08/03 00:45:37;;;;;;;0.95;0.93;;;24.20;96.20;;;;;;5031273;28;20049;-78
2022/08/03 00:48:05;;;;;;;0.85;0.85;;;24.20;96.00;;;;;;5031211;28;20029;-79
2022/08/03 00:50:34;;;;;;;1.63;1.00;;;24.20;96.00;;;;;;5031470;28;20143;-78
2022/08/03 00:53:00;;;;;;;0.82;0.82;;;24.10;96.00;;;;;;5031485;28;20364;-78
2022/08/03 00:55:26;;;;;;;0.80;0.80;;;24.10;96.30;;;;;;5031492;28;20034;-78
2022/08/03 00:57:53;;;;;;;0.90;0.90;;;24.10;96.20;;;;;;5030859;28;20664;-78
2022/08/03 01:00:24;;;;;;;2.15;1.00;;;24.10;96.30;;;;;;5013759;28;20022;-78
2022/08/03 01:02:51;;;;;;;0.70;0.70;;;24.10;96.30;;;;;;5031337;28;20014;-78
2022/08/03 01:05:18;;;;;;;0.80;0.80;;;24.10;96.60;;;;;;5031927;28;20026;-78
2022/08/03 01:07:58;;;;;;;1.13;1.00;;;24.10;96.70;;;;;;5034954;28;20037;-78
2022/08/03 01:10:31;;;;;;;1.10;1.05;;;24.10;96.60;;;;;;5035080;28;20068;-78
2022/08/03 01:13:19;;;;;;;0.82;0.80;;;24.00;96.80;;;;;;5035081;28;20029;-77
2022/08/03 01:15:57;;;;;;;1.40;1.30;;;24.00;96.80;;;;;;5034979;28;20057;-79
2022/08/03 01:18:58;;;;;;;0.77;0.77;;;24.00;96.70;;;;;;5017320;28;20047;-77
2022/08/03 01:21:46;;;;;;;1.05;1.05;;;24.00;96.80;;;;;;5029798;28;20041;-78
2022/08/03 01:24:28;;;;;;;1.15;1.15;;;24.10;96.90;;;;;;5003453;28;20030;-78
2022/08/03 01:27:03;;;;;;;2.35;1.02;;;24.00;96.90;;;;;;5031502;28;20040;-78
2022/08/03 01:29:38;;;;;;;1.35;1.02;;;24.00;97.20;;;;;;5034950;28;20048;-79
2022/08/03 01:32:14;;;;;;;1.00;1.00;;;23.90;97.30;;;;;;5034548;28;20120;-78
2022/08/03 01:34:47;;;;;;;1.85;0.80;;;23.90;97.40;;;;;;5037290;28;20025;-78
2022/08/03 01:37:20;;;;;;;1.58;1.05;;;23.90;97.70;;;;;;5016676;28;20031;-78
2022/08/03 01:39:48;;;;;;;0.90;0.90;;;23.90;97.60;;;;;;5034791;28;20490;-78
2022/08/03 01:42:15;;;;;;;1.27;0.90;;;23.90;97.40;;;;;;5034607;28;20030;-78
2022/08/03 01:44:44;;;;;;;1.00;1.00;;;23.90;97.60;;;;;;5016337;28;20131;-78
2022/08/03 01:47:11;;;;;;;1.13;1.13;;;23.90;97.60;;;;;;5034329;28;20083;-79
2022/08/03 01:52:30;;;;;;;1.30;1.20;;;23.90;97.80;;;;;;5034607;28;20110;-78
2022/08/03 01:54:57;;;;;;;1.10;1.10;;;23.80;97.90;;;;;;5034247;28;20013;-77
2022/08/03 01:57:26;;;;;;;0.70;0.70;;;23.80;98.10;;;;;;5034130;28;20526;-78
2022/08/03 01:59:55;;;;;;;1.17;1.08;;;23.80;98.30;;;;;;5034162;28;20021;-78
2022/08/03 02:02:22;;;;;;;1.48;1.38;;;23.80;98.30;;;;;;5012919;28;20037;-78
2022/08/03 02:04:51;;;;;;;1.10;1.10;;;23.80;98.40;;;;;;5029437;28;20383;-78
2022/08/03 02:07:18;;;;;;;1.10;1.00;;;23.70;98.50;;;;;;5016314;28;20029;-78
2022/08/03 02:09:48;;;;;;;0.90;0.90;;;23.80;98.60;;;;;;5034101;28;20061;-78
2022/08/03 02:12:14;;;;;;;1.08;1.08;;;23.80;98.70;;;;;;5034047;28;20025;-78
2022/08/03 02:14:43;;;;;;;0.82;0.82;;;23.70;98.80;;;;;;5033856;28;20026;-78
2022/08/03 02:17:11;;;;;;;1.15;1.15;;;23.70;98.90;;;;;;5015072;28;20044;-78
2022/08/03 02:19:38;;;;;;;1.45;1.05;;;23.70;99.00;;;;;;5033747;28;20026;-78
2022/08/03 02:22:07;;;;;;;2.30;1.40;;;23.70;99.20;;;;;;5033821;28;20096;-78
2022/08/03 02:24:33;;;;;;;1.35;1.23;;;23.60;99.30;;;;;;5033871;28;20108;-78
2022/08/03 02:27:00;;;;;;;1.05;1.05;;;23.60;99.40;;;;;;5033437;28;20123;-78
2022/08/03 02:29:30;;;;;;;1.10;1.00;;;23.60;99.60;;;;;;5033445;28;20021;-78
2022/08/03 02:31:59;;;;;;;0.93;0.93;;;23.60;99.60;;;;;;5033661;28;20056;-78
2022/08/03 02:34:27;;;;;;;1.17;1.05;;;23.60;99.50;;;;;;5033678;28;20025;-78
2022/08/03 02:36:59;;;;;;;1.10;1.10;;;23.60;99.40;;;;;;5033494;28;20112;-78
2022/08/03 02:39:27;;;;;;;2.35;1.13;;;23.60;99.40;;;;;;5033613;28;20022;-78
2022/08/03 02:42:01;;;;;;;1.10;1.10;;;23.60;99.50;;;;;;5033495;28;20076;-78
2022/08/03 02:44:30;;;;;;;1.17;1.08;;;23.60;99.70;;;;;;5015519;28;20053;-78
2022/08/03 02:47:02;;;;;;;2.13;0.90;;;23.50;99.80;;;;;;5015672;28;20029;-78
2022/08/03 02:49:30;;;;;;;1.35;1.30;;;23.50;99.90;;;;;;5033441;28;20100;-78
2022/08/03 02:51:57;;;;;;;2.72;1.40;;;23.50;99.90;;;;;;5033134;28;20037;-78
2022/08/03 02:54:25;;;;;;;1.00;1.00;;;23.40;99.90;;;;;;5033134;28;20125;-77
2022/08/03 02:56:53;;;;;;;1.08;1.08;;;23.40;99.90;;;;;;5032906;28;20029;-78
2022/08/03 02:59:20;;;;;;;1.20;1.20;;;23.30;99.90;;;;;;5033164;28;20064;-78
2022/08/03 03:01:46;;;;;;;1.30;1.20;;;23.40;99.90;;;;;;5015246;28;20021;-78
2022/08/03 03:04:14;;;;;;;1.50;1.40;;;23.30;99.90;;;;;;5015120;28;20044;-78
2022/08/03 03:06:40;;;;;;;1.38;1.27;;;23.40;99.90;;;;;;5014982;28;20014;-78
2022/08/03 03:09:07;;;;;;;1.52;1.42;;;23.30;99.90;;;;;;5033085;28;20436;-78
2022/08/03 03:11:37;;;;;;;1.25;1.25;;;23.30;99.90;;;;;;5015026;28;20030;-78
2022/08/03 03:14:03;;;;;;;2.65;1.25;;;23.30;99.90;;;;;;5032781;28;20091;-78
2022/08/03 03:16:31;;;;;;;2.83;1.30;;;23.30;99.90;;;;;;5014968;28;20551;-78
2022/08/03 03:18:58;;;;;;;1.13;1.13;;;23.30;99.90;;;;;;5032781;28;20021;-78
2022/08/03 03:21:25;;;;;;;1.10;1.10;;;23.30;99.90;;;;;;5029501;28;20021;-77
2022/08/03 03:23:52;;;;;;;1.10;1.10;;;23.30;99.90;;;;;;5032563;28;20448;-77
2022/08/03 03:26:18;;;;;;;1.67;1.58;;;23.40;99.90;;;;;;5032324;28;20055;-78
2022/08/03 03:28:45;;;;;;;1.13;1.13;;;23.40;99.90;;;;;;5031833;28;20034;-78
2022/08/03 03:31:11;;;;;;;1.30;1.30;;;23.40;99.90;;;;;;5032469;28;20551;-78
2022/08/03 03:33:37;;;;;;;1.40;1.30;;;23.40;99.90;;;;;;5034409;28;20075;-78
2022/08/03 03:36:06;;;;;;;1.27;1.00;;;23.30;99.90;;;;;;5032339;28;20100;-78
2022/08/03 03:38:32;;;;;;;1.25;1.25;;;23.20;99.90;;;;;;5014665;28;20029;-77
2022/08/03 03:40:59;;;;;;;1.40;1.30;;;23.20;99.90;;;;;;5032139;28;20049;-78
2022/08/03 03:43:24;;;;;;;1.00;1.00;;;23.20;99.90;;;;;;5032140;28;20391;-77
2022/08/03 03:45:52;;;;;;;2.10;1.10;;;23.20;99.90;;;;;;5032347;28;20025;-78
2022/08/03 03:48:18;;;;;;;1.20;1.10;;;23.20;99.90;;;;;;5032192;28;20402;-77
2022/08/03 03:50:44;;;;;;;1.10;1.10;;;23.20;99.90;;;;;;5014103;28;20305;-77
2022/08/03 03:53:12;;;;;;;2.10;1.75;;;23.20;99.90;;;;;;5032178;28;20018;-78
2022/08/03 03:55:39;;;;;;;1.20;1.20;;;23.20;99.90;;;;;;5014497;28;20026;-78
2022/08/03 03:58:06;;;;;;;1.30;1.30;;;23.20;99.90;;;;;;5031848;28;20022;-78
2022/08/03 04:00:32;;;;;;;1.48;1.38;;;23.20;99.90;;;;;;5014220;28;20025;-78
2022/08/03 04:02:58;;;;;;;0.98;0.98;;;23.10;99.90;;;;;;5014268;28;20021;-78
2022/08/03 04:11:10;;;;;;;4.45;1.45;;;23.10;99.90;;;;;;5032146;28;20087;-78
2022/08/03 04:13:39;;;;;;;1.67;1.20;;;23.10;99.90;;;;;;5013828;28;20398;-78
2022/08/03 04:16:08;;;;;;;1.52;1.35;;;23.00;99.90;;;;;;5031412;28;20025;-78
2022/08/03 04:18:36;;;;;;;1.58;1.40;;;23.10;99.90;;;;;;5031767;28;20223;-78
2022/08/03 04:21:05;;;;;;;1.83;1.50;;;23.00;99.90;;;;;;5031710;28;20026;-78
2022/08/03 04:23:34;;;;;;;1.35;1.33;;;23.10;99.90;;;;;;5031516;28;20026;-78
2022/08/03 04:26:02;;;;;;;1.40;1.30;;;23.10;99.90;;;;;;5031475;28;20388;-78
2022/08/03 04:28:29;;;;;;;1.75;1.10;;;23.00;99.90;;;;;;5031369;28;20419;-78
2022/08/03 04:30:56;;;;;;;1.40;1.30;;;23.00;99.90;;;;;;5031600;28;20019;-77
2022/08/03 04:33:26;;;;;;;1.05;1.05;;;23.00;99.90;;;;;;5031701;28;20383;-78
2022/08/03 04:35:57;;;;;;;1.42;1.35;;;23.00;99.90;;;;;;5031530;28;20104;-77
2022/08/03 04:38:24;;;;;;;1.10;1.10;;;23.00;99.90;;;;;;5013538;28;20032;-78
2022/08/03 04:40:51;;;;;;;1.65;1.33;;;23.10;99.90;;;;;;5016530;28;20487;-78
2022/08/03 04:43:19;;;;;;;1.20;0.93;;;23.10;99.90;;;;;;5038072;28;20036;-78
2022/08/03 04:45:48;;;;;;;1.13;1.02;;;23.10;99.90;;;;;;5037942;28;20040;-78
2022/08/03 04:48:14;;;;;;;1.25;1.17;;;23.00;99.90;;;;;;5037993;28;20443;-78
2022/08/03 04:50:41;;;;;;;2.05;1.15;;;22.90;99.90;;;;;;5037678;28;20029;-77
2022/08/03 04:53:08;;;;;;;2.97;1.55;;;22.90;99.90;;;;;;5033188;28;20135;-78
2022/08/03 04:55:35;;;;;;;1.40;1.30;;;23.00;99.90;;;;;;5027080;28;20104;-78
2022/08/03 04:58:02;;;;;;;1.45;1.13;;;23.10;99.90;;;;;;5025689;28;20087;-78
2022/08/03 05:00:28;;;;;;;1.20;1.15;;;23.10;99.90;;;;;;5026195;28;20551;-78
2022/08/03 05:02:54;;;;;;;4.03;1.50;;;23.20;99.90;;;;;;5008695;28;20112;-77
2022/08/03 05:05:20;;;;;;;1.20;1.10;;;23.20;99.90;;;;;;5020483;28;20611;-77
2022/08/03 05:07:49;;;;;;;1.70;1.40;;;23.20;99.90;;;;;;5022729;28;20030;-77
2022/08/03 05:10:15;;;;;;;1.27;1.08;;;23.30;99.90;;;;;;5025694;28;20410;-78
2022/08/03 05:12:41;;;;;;;3.38;1.33;;;23.30;99.90;;;;;;5008794;28;20033;-78
2022/08/03 05:15:08;;;;;;;1.02;1.02;;;23.30;99.90;;;;;;5015835;28;20395;-77
2022/08/03 05:17:33;;;;;;;2.08;1.20;;;23.30;99.90;;;;;;5037560;28;20431;-77
2022/08/03 05:20:00;;;;;;;1.77;1.60;;;23.40;99.90;;;;;;5037572;28;20022;-78
2022/08/03 05:22:25;;;;;;;1.40;1.33;;;23.50;99.90;;;;;;5037734;28;20045;-77
2022/08/03 05:24:51;;;;;;;1.40;1.20;;;23.50;99.90;;;;;;5037007;28;20115;-77
2022/08/03 05:27:20;;;;;;;1.30;1.30;;;23.60;99.90;;;;;;5016104;28;20491;-78
2022/08/03 05:29:47;;;;;;;1.40;1.30;;;23.60;99.90;;;;;;5017901;28;20396;-78
2022/08/03 05:32:13;;;;;;;1.10;1.10;;;23.70;99.90;;;;;;4999913;28;20026;-78
2022/08/03 05:34:38;;;;;;;1.60;1.50;;;23.70;99.90;;;;;;4999978;28;20035;-77
2022/08/03 05:37:06;;;;;;;3.88;1.55;;;23.70;99.90;;;;;;5017669;28;20018;-78
2022/08/03 05:39:32;;;;;;;1.40;1.30;;;23.80;99.90;;;;;;5016978;28;20104;-78
2022/08/03 05:41:58;;;;;;;1.70;1.55;;;23.80;99.90;;;;;;5027396;28;20010;-78
2022/08/03 05:44:24;;;;;;;3.83;1.70;;;23.90;99.90;;;;;;5017748;28;20514;-77
2022/08/03 05:46:50;;;;;;;3.78;1.70;;;24.00;99.90;;;;;;5017854;28;20573;-78
2022/08/03 05:49:16;;;;;;;1.50;1.35;;;24.10;99.90;;;;;;5035532;28;20021;-78
2022/08/03 05:51:42;;;;;;;2.03;1.30;;;24.10;99.90;;;;;;5034284;28;20033;-78
2022/08/03 05:54:07;;;;;;;1.90;1.30;;;24.10;99.90;;;;;;5032099;28;20030;-78
2022/08/03 05:56:33;;;;;;;4.10;1.20;;;24.20;99.90;;;;;;5034015;28;20025;-78
2022/08/03 05:58:59;;;;;;;1.70;1.50;;;24.20;99.90;;;;;;5016479;28;20022;-78
2022/08/03 06:01:25;;;;;;;1.40;1.40;;;24.30;99.90;;;;;;5034272;28;20033;-77
2022/08/03 06:03:51;;;;;;;1.45;1.30;;;24.40;99.90;;;;;;5016189;28;20022;-77
2022/08/03 06:06:17;;;;;;;2.15;1.40;;;24.40;99.90;;;;;;5033952;28;20036;-77
2022/08/03 06:08:44;;;;;;;1.52;1.42;;;24.50;99.90;;;;;;5033967;28;20037;-77
2022/08/03 06:11:11;;;;;;;1.08;1.08;;;24.60;99.90;;;;;;5016198;28;20434;-77
2022/08/03 06:13:37;;;;;;;2.53;1.60;;;24.60;99.90;;;;;;5034083;28;20056;-77
2022/08/03 06:16:03;;;;;;;3.28;1.30;;;24.60;99.90;;;;;;5033749;28;20522;-77
2022/08/03 06:18:29;;;;;;;1.55;1.40;;;24.70;99.90;;;;;;5033716;28;20265;-77
2022/08/03 06:20:55;;;;;;;1.60;1.30;;;24.80;99.90;;;;;;5033652;28;20021;-77
2022/08/03 06:23:21;;;;;;;1.83;1.73;;;24.80;99.90;;;;;;5033835;28;20025;-77
2022/08/03 06:25:47;;;;;;;2.03;1.70;;;24.90;99.90;;;;;;5033512;28;20029;-77
2022/08/03 06:28:13;;;;;;;1.15;1.15;;;25.00;99.90;;;;;;5033454;28;20507;-77
2022/08/03 06:30:40;;;;;;;1.40;1.25;;;25.00;99.90;;;;;;5033748;28;20154;-77
2022/08/03 06:33:05;;;;;;;2.60;1.25;;;25.10;99.90;;;;;;5033581;28;20026;-77
2022/08/03 06:35:32;;;;;;;2.63;1.25;;;25.20;99.90;;;;;;5033433;28;20506;-77
2022/08/03 06:37:58;;;;;;;1.50;1.40;;;25.30;99.60;;;;;;5033321;28;20095;-77
2022/08/03 06:40:28;;;;;;;1.85;1.13;;;25.30;99.50;;;;;;5033408;28;20088;-77
2022/08/03 06:42:55;;;;;;;1.20;1.20;;;25.40;99.30;;;;;;5015546;28;20025;-77
2022/08/03 06:45:21;;;;;;;5.82;1.30;;;25.50;98.80;;;;;;5033063;28;20128;-77
2022/08/03 06:47:47;;;;;;;2.17;1.60;;;25.60;98.90;;;;;;5033196;28;20503;-77
2022/08/03 06:50:12;;;;;;;1.50;1.40;;;25.70;98.70;;;;;;5033147;28;20029;-77
2022/08/03 06:52:38;;;;;;;1.67;1.20;;;25.70;98.90;;;;;;5033152;28;20427;-77
2022/08/03 06:55:05;;;;;;;2.10;1.85;;;25.80;99.60;;;;;;5033297;28;20076;-77
2022/08/03 06:57:30;;;;;;;1.70;1.10;;;25.80;98.00;;;;;;5032677;28;20129;-77
2022/08/03 07:00:00;;;;;;;1.58;1.48;;;25.90;98.20;;;;;;5032979;28;20543;-77
2022/08/03 07:02:29;;;;;;;1.48;1.38;;;26.00;98.10;;;;;;5032877;28;20025;-77
2022/08/03 07:04:55;;;;;;;1.27;1.25;;;26.10;98.50;;;;;;5033115;28;20084;-77
2022/08/03 07:07:20;;;;;;;1.75;1.65;;;26.10;98.90;;;;;;5032696;28;20435;-77
2022/08/03 07:09:49;;;;;;;2.40;1.30;;;26.10;98.90;;;;;;5032772;28;20447;-77
2022/08/03 07:12:14;;;;;;;1.42;1.38;;;26.20;99.10;;;;;;5032777;28;20037;-77
2022/08/03 07:14:40;;;;;;;2.10;1.60;;;26.20;98.80;;;;;;5033000;28;20029;-77
2022/08/03 07:17:06;;;;;;;2.20;1.30;;;26.30;98.40;;;;;;5014484;28;20036;-77
2022/08/03 07:19:31;;;;;;;1.48;1.38;;;26.30;97.20;;;;;;5032834;28;20022;-78
2022/08/03 07:21:57;;;;;;;1.92;1.33;;;26.30;98.00;;;;;;5029597;28;20025;-77
2022/08/03 07:24:23;;;;;;;3.75;1.50;;;26.40;98.30;;;;;;5014886;28;20080;-77
2022/08/03 07:26:49;;;;;;;1.55;1.45;;;26.50;96.20;;;;;;5032498;28;20022;-77
2022/08/03 07:29:15;;;;;;;1.70;1.60;;;26.50;96.10;;;;;;5032310;28;20487;-77
2022/08/03 07:31:41;;;;;;;1.40;1.30;;;26.60;96.00;;;;;;5014607;28;20037;-77
2022/08/03 07:34:06;;;;;;;1.85;1.38;;;26.60;96.60;;;;;;5014620;28;20025;-77
2022/08/03 07:36:32;;;;;;;1.50;1.40;;;26.70;96.70;;;;;;5032375;28;20383;-77
2022/08/03 07:38:58;;;;;;;3.63;1.58;;;26.80;96.00;;;;;;5032144;28;20037;-78
2022/08/03 07:41:24;;;;;;;1.45;1.45;;;26.80;95.20;;;;;;5032258;28;20033;-77
2022/08/03 07:43:49;;;;;;;2.85;1.50;;;26.90;94.40;;;;;;5032261;28;20048;-77
2022/08/03 07:46:15;;;;;;;1.98;1.35;;;26.90;93.90;;;;;;5034413;28;20022;-77
2022/08/03 07:48:41;;;;;;;1.50;1.40;;;26.90;94.40;;;;;;5032331;28;20025;-77
2022/08/03 07:51:06;;;;;;;1.15;1.15;;;26.90;94.20;;;;;;5031984;28;20030;-77
2022/08/03 07:53:32;;;;;;;1.70;1.60;;;27.00;94.60;;;;;;5032007;28;20502;-77
2022/08/03 07:55:58;;;;;;;1.98;1.40;;;27.00;94.30;;;;;;5031902;28;20017;-77
2022/08/03 07:58:24;;;;;;;1.60;1.50;;;27.10;93.40;;;;;;5031898;28;20112;-77
2022/08/03 08:00:51;;;;;;;1.30;1.30;;;27.10;93.70;;;;;;5031841;28;20092;-78
2022/08/03 08:03:17;;;;;;;2.60;1.30;;;27.20;92.50;;;;;;5032011;28;20018;-77
2022/08/03 08:05:43;;;;;;;2.08;1.15;;;27.20;92.60;;;;;;5014096;28;20116;-77
2022/08/03 08:08:09;;;;;;;3.17;1.58;;;27.40;93.20;;;;;;5031775;28;20045;-78
2022/08/03 08:10:35;;;;;;;2.40;1.45;;;27.40;92.90;;;;;;5031855;28;20064;-77
2022/08/03 08:13:02;;;;;;;1.38;1.33;;;27.40;93.00;;;;;;5031677;28;20080;-78
2022/08/03 08:15:28;;;;;;;4.38;1.40;;;27.40;92.10;;;;;;5031019;28;20037;-77
2022/08/03 08:17:55;;;;;;;1.33;1.15;;;27.40;92.00;;;;;;5013690;28;20033;-78
2022/08/03 08:20:24;;;;;;;1.73;1.45;;;27.50;92.80;;;;;;5014080;28;20468;-78
2022/08/03 08:22:49;;;;;;;1.27;1.17;;;27.50;92.30;;;;;;5031507;28;20026;-78
2022/08/03 08:25:15;;;;;;;3.20;1.40;;;27.50;92.20;;;;;;5013765;28;20502;-78
2022/08/03 08:27:46;;;;;;;1.60;1.27;;;27.50;91.90;;;;;;5031401;28;20103;-77
2022/08/03 08:30:13;;;;;;;1.73;1.60;;;27.50;92.50;;;;;;5031649;28;20025;-78
2022/08/03 08:32:39;;;;;;;2.67;1.85;;;27.60;92.90;;;;;;5031465;28;20065;-78
2022/08/03 08:35:06;;;;;;;2.20;1.60;;;27.80;92.80;;;;;;5031599;28;20472;-78
2022/08/03 08:37:32;;;;;;;1.70;1.48;;;27.80;92.10;;;;;;5031189;28;20025;-78
2022/08/03 08:39:58;;;;;;;1.70;1.60;;;27.80;92.60;;;;;;5031505;28;20075;-78
2022/08/03 08:42:24;;;;;;;2.60;1.65;;;27.70;92.30;;;;;;5031199;28;20119;-78
2022/08/03 08:44:50;;;;;;;1.35;1.33;;;27.80;92.30;;;;;;5013526;28;20500;-78
2022/08/03 08:47:19;;;;;;;1.55;1.45;;;27.80;92.40;;;;;;5013741;28;20026;-78
2022/08/03 08:49:47;;;;;;;1.60;1.50;;;27.90;92.90;;;;;;5013736;28;20030;-77
2022/08/03 08:52:13;;;;;;;3.83;1.85;;;28.10;93.10;;;;;;5031068;28;20035;-78
2022/08/03 08:54:41;;;;;;;1.98;1.80;;;28.20;93.00;;;;;;5013425;28;20060;-78
2022/08/03 08:57:08;;;;;;;2.00;1.90;;;28.10;93.00;;;;;;5031268;28;20025;-77
2022/08/03 08:59:34;;;;;;;2.83;1.67;;;28.20;93.20;;;;;;5031327;28;20027;-77
2022/08/03 09:02:00;;;;;;;6.38;1.65;;;28.40;92.20;;;;;;5031033;28;20333;-78
2022/08/03 09:04:27;;;;;;;1.60;1.50;;;28.40;92.20;;;;;;5031297;28;20049;-77
2022/08/03 09:06:53;;;;;;;2.30;2.05;;;28.30;92.60;;;;;;5031274;28;20468;-77
2022/08/03 09:09:18;;;;;;;3.25;1.55;;;28.30;91.80;;;;;;5013367;28;20034;-78
2022/08/03 09:11:44;;;;;;;2.47;2.00;;;28.30;91.30;;;;;;5031144;28;20029;-77
2022/08/03 09:14:10;;;;;;;1.50;1.40;;;28.30;91.40;;;;;;5031037;28;20032;-77
2022/08/03 09:16:36;;;;;;;1.70;1.60;;;28.30;92.70;;;;;;5030808;28;20475;-78
2022/08/03 09:19:13;;;;;;;1.85;1.60;;;28.40;91.20;;;;;;5030996;28;20026;-78
2022/08/03 09:21:39;;;;;;;1.73;1.63;;;28.50;90.50;;;;;;5027685;28;20144;-77
2022/08/03 09:24:06;;;;;;;1.65;1.55;;;28.60;90.20;;;;;;5030939;28;20506;-78
2022/08/03 09:26:33;;;;;;;1.52;1.40;;;28.60;90.40;;;;;;5013330;28;20446;-78
2022/08/03 09:29:04;;;;;;;1.98;1.88;;;28.60;89.40;;;;;;5034242;28;20036;-77
2022/08/03 09:31:33;;;;;;;1.85;1.70;;;28.50;90.00;;;;;;5034616;28;20025;-78
2022/08/03 09:34:06;;;;;;;1.90;1.80;;;28.60;90.60;;;;;;5016827;28;20025;-78
2022/08/03 09:36:37;;;;;;;2.05;1.55;;;28.70;90.60;;;;;;5034502;28;20112;-77
2022/08/03 09:39:10;;;;;;;2.97;1.90;;;28.70;90.50;;;;;;5034524;28;20029;-78
2022/08/03 09:41:40;;;;;;;1.70;1.60;;;28.80;90.70;;;;;;5034556;28;20006;-78
2022/08/03 09:44:07;;;;;;;1.55;1.48;;;28.90;89.70;;;;;;5034460;28;20073;-77
2022/08/03 09:46:50;;;;;;;2.80;1.42;;;28.90;86.90;;;;;;5034211;28;20018;-77
2022/08/03 09:49:16;;;;;;;1.70;1.60;;;28.90;87.50;;;;;;5036692;28;20505;-77
2022/08/03 09:51:43;;;;;;;2.30;1.80;;;28.90;90.00;;;;;;5016721;28;20029;-78
2022/08/03 09:54:09;;;;;;;1.60;1.50;;;29.00;88.70;;;;;;5034198;28;20029;-78
2022/08/03 09:56:47;;;;;;;1.73;1.42;;;29.10;87.40;;;;;;5034021;28;20032;-78
2022/08/03 09:59:23;;;;;;;1.77;1.65;;;29.10;87.70;;;;;;5034320;28;20032;-78
2022/08/03 10:01:49;;;;;;;1.52;1.42;;;29.10;86.00;;;;;;5016383;28;20084;-77
2022/08/03 10:04:18;;;;;;;1.98;1.73;;;29.20;86.50;;;;;;5034163;28;20360;-78
2022/08/03 10:06:45;;;;;;;1.70;1.60;;;29.20;89.40;;;;;;5034006;28;20084;-78
2022/08/03 10:09:15;;;;;;;1.70;1.60;;;29.30;89.80;;;;;;5033841;28;20092;-77
2022/08/03 10:11:42;;;;;;;2.10;1.90;;;29.50;89.10;;;;;;5016150;28;20029;-77
2022/08/03 10:14:22;;;;;;;1.88;1.77;;;29.40;86.50;;;;;;5033778;28;20022;-77
2022/08/03 10:16:48;;;;;;;1.98;1.88;;;29.40;88.00;;;;;;5015860;28;20032;-77
2022/08/03 10:19:15;;;;;;;2.95;1.60;;;29.50;85.90;;;;;;5033826;28;20135;-78
2022/08/03 10:22:02;;;;;;;2.45;2.25;;;29.40;85.00;;;;;;5033791;28;20491;-77
2022/08/03 10:24:29;;;;;;;1.73;1.63;;;29.50;83.90;;;;;;5015127;28;20026;-78
2022/08/03 10:27:07;;;;;;;1.63;1.52;;;29.60;84.60;;;;;;5015923;28;20028;-77
2022/08/03 10:29:41;;;;;;;1.60;1.50;;;29.90;83.10;;;;;;5033476;28;20025;-78
2022/08/03 10:32:15;;;;;;;2.15;1.60;;;29.90;80.40;;;;;;5033536;28;20281;-77
2022/08/03 10:34:42;;;;;;;1.75;1.50;;;29.90;81.00;;;;;;5033779;28;20026;-78
2022/08/03 10:37:11;;;;;;;2.83;1.65;;;29.90;78.80;;;;;;5033070;28;20092;-78
2022/08/03 10:39:52;;;;;;;2.50;2.30;;;30.00;79.50;;;;;;5015256;28;20392;-78
2022/08/03 10:42:22;;;;;;;2.67;1.67;;;30.00;79.90;;;;;;5033485;28;20025;-77
2022/08/03 10:44:52;;;;;;;1.98;1.70;;;30.10;79.20;;;;;;5033364;28;20054;-77
2022/08/03 10:47:18;;;;;;;1.50;1.50;;;30.00;78.30;;;;;;5033325;28;20499;-77
2022/08/03 10:49:46;;;;;;;3.33;1.85;;;30.30;78.20;;;;;;5033184;28;20041;-78
2022/08/03 10:52:12;;;;;;;6.00;1.85;;;30.40;79.80;;;;;;5033037;28;20275;-77
2022/08/03 10:57:42;;;;;;;1.63;1.52;;;30.50;75.30;;;;;;5033015;28;20073;-77
2022/08/03 11:00:09;;;;;;;1.55;1.45;;;30.60;78.50;;;;;;5033247;28;20041;-77
2022/08/03 11:03:00;;;;;;;1.25;1.25;;;30.70;78.60;;;;;;5033125;28;20018;-77
2022/08/03 11:05:27;;;;;;;1.63;1.52;;;30.90;77.40;;;;;;5033055;28;20061;-78
2022/08/03 11:08:18;;;;;;;2.25;2.15;;;31.10;78.00;;;;;;5015332;28;20084;-77
2022/08/03 11:10:44;;;;;;;2.63;1.83;;;31.10;73.70;;;;;;5015217;28;20546;-77
2022/08/03 11:13:14;;;;;;;1.95;1.85;;;31.00;73.90;;;;;;5032987;28;20028;-77
2022/08/03 11:15:42;;;;;;;1.48;1.38;;;31.00;72.20;;;;;;5014970;28;20083;-78
2022/08/03 11:18:10;;;;;;;1.90;1.70;;;31.00;73.00;;;;;;5015000;28;20026;-77
2022/08/03 11:20:51;;;;;;;1.60;1.50;;;31.10;69.90;;;;;;5032753;28;20024;-77
2022/08/03 11:23:20;;;;;;;1.70;1.60;;;31.10;72.80;;;;;;5029587;28;20025;-78
2022/08/03 11:26:10;;;;;;;2.80;1.52;;;31.20;70.20;;;;;;5032715;28;20025;-77
2022/08/03 11:28:37;;;;;;;1.60;1.50;;;31.20;69.50;;;;;;5032610;28;20484;-77
2022/08/03 11:31:29;;;;;;;3.13;1.30;;;31.20;71.00;;;;;;5014893;28;20029;-77
2022/08/03 11:34:08;;;;;;;;;;;31.40;68.10;;;;;;4992520;28;20036;-77
2022/08/03 11:37:11;;;;;;;1.58;1.48;;;31.50;67.60;;;;;;5032427;28;19913;-78
2022/08/03 11:39:45;;;;;;;2.30;1.75;;;31.40;69.00;;;;;;5032407;28;20022;-77
2022/08/03 11:42:23;;;;;;;3.25;1.70;;;31.40;69.60;;;;;;5032449;28;20018;-77
2022/08/03 11:44:54;;;;;;;1.80;1.70;;;31.50;70.80;;;;;;5014325;28;20045;-78
2022/08/03 11:47:24;;;;;;;1.85;1.75;;;31.60;70.40;;;;;;5034488;28;20550;-77
2022/08/03 11:49:53;;;;;;;4.05;1.50;;;31.70;68.80;;;;;;5013739;28;20037;-77
2022/08/03 11:52:19;;;;;;;1.98;1.73;;;31.80;67.60;;;;;;5031982;28;20036;-77
2022/08/03 11:54:44;;;;;;;2.20;1.70;;;31.70;68.70;;;;;;5032364;28;20108;-76
2022/08/03 11:57:10;;;;;;;8.13;2.00;;;31.90;67.80;;;;;;5031776;28;20029;-77
2022/08/03 11:59:37;;;;;;;2.45;1.90;;;32.00;67.00;;;;;;5031928;28;20120;-77
2022/08/03 12:02:10;;;;;;;1.95;1.85;;;31.90;66.20;;;;;;5032121;28;20045;-77
2022/08/03 12:04:52;;;;;;;1.73;1.48;;;32.10;67.10;;;;;;5031954;28;20052;-77
2022/08/03 12:07:18;;;;;;;2.35;1.50;;;32.10;65.30;;;;;;5031957;28;20033;-77
2022/08/03 12:10:13;;;;;;;1.75;1.65;;;32.30;67.40;;;;;;5031803;28;20032;-77
2022/08/03 12:12:41;;;;;;;2.00;1.90;;;32.50;67.20;;;;;;5031723;28;20025;-77
2022/08/03 12:15:08;;;;;;;1.60;1.50;;;32.70;67.70;;;;;;5031838;28;20546;-77
2022/08/03 12:17:39;;;;;;;1.70;1.60;;;32.80;66.80;;;;;;5013701;28;20056;-77
2022/08/03 12:20:08;;;;;;;2.05;1.75;;;32.90;65.30;;;;;;5031748;28;20022;-77
2022/08/03 12:22:36;;;;;;;1.58;1.58;;;32.80;63.50;;;;;;5031611;28;20073;-77
2022/08/03 12:25:03;;;;;;;2.17;1.42;;;32.90;62.40;;;;;;5031543;28;20097;-77
2022/08/03 12:27:28;;;;;;;5.95;3.30;;;33.00;62.10;;;;;;5031453;28;20025;-77
2022/08/03 12:29:56;;;;;;;2.97;1.63;;;33.10;62.20;;;;;;5031642;28;20028;-77
2022/08/03 12:32:22;;;;;;;2.38;1.50;;;33.10;61.00;;;;;;5013763;28;20034;-77
2022/08/03 12:34:49;;;;;;;1.50;1.40;;;33.20;62.60;;;;;;5031581;28;20021;-77
2022/08/03 12:37:21;;;;;;;1.48;1.38;;;33.30;62.00;;;;;;5013749;28;20076;-77
2022/08/03 12:39:51;;;;;;;1.67;1.58;;;33.40;60.00;;;;;;5031600;28;20075;-77
2022/08/03 12:42:17;;;;;;;1.67;1.58;;;33.40;59.60;;;;;;5013790;28;20180;-77
2022/08/03 12:44:44;;;;;;;1.85;1.75;;;33.40;59.20;;;;;;5031199;28;20057;-77
2022/08/03 12:47:11;;;;;;;1.70;1.60;;;33.30;59.00;;;;;;5031315;28;20026;-77
2022/08/03 12:49:47;;;;;;;1.95;1.52;;;33.50;59.90;;;;;;5031469;28;20518;-77
2022/08/03 12:52:13;;;;;;;1.77;1.60;;;33.60;60.40;;;;;;5013490;28;20029;-77
2022/08/03 12:54:38;;;;;;;1.90;1.70;;;33.60;58.70;;;;;;5031443;28;20025;-77
2022/08/03 12:57:09;;;;;;;1.90;1.80;;;33.60;60.20;;;;;;5013464;28;20034;-77
2022/08/03 12:59:41;;;;;;;1.92;1.65;;;33.70;58.90;;;;;;5031402;28;20545;-78
2022/08/03 13:02:18;;;;;;;3.78;1.77;;;33.70;58.80;;;;;;5033185;28;20026;-77
2022/08/03 13:04:45;;;;;;;2.45;1.85;;;33.60;57.80;;;;;;5035239;28;20031;-77
2022/08/03 13:07:12;;;;;;;1.60;1.50;;;33.70;58.80;;;;;;5035288;28;20029;-77